createdAt,value
2022-10-22T00:00:10.661Z,0.00
2022-10-22T00:01:10.624Z,0.00
2022-10-22T00:02:10.621Z,0.00
2022-10-22T00:03:10.631Z,0.00
2022-10-22T00:04:10.716Z,0.00
2022-10-22T00:05:10.592Z,0.00
2022-10-22T00:06:10.603Z,0.00
2022-10-22T00:07:10.554Z,0.00
2022-10-22T00:08:10.549Z,0.00
2022-10-22T00:09:10.610Z,0.00
2022-10-22T00:10:10.601Z,0.00
2022-10-22T00:11:10.506Z,0.00
2022-10-22T00:12:10.519Z,0.00
2022-10-22T00:13:10.464Z,0.00
2022-10-22T00:14:10.480Z,0.00
2022-10-22T00:15:10.437Z,0.00
2022-10-22T00:16:10.508Z,0.00
2022-10-22T00:17:11.515Z,0.00
2022-10-22T00:18:10.418Z,0.00
2022-10-22T00:19:10.429Z,0.00
2022-10-22T00:20:10.390Z,0.00
2022-10-22T00:21:10.390Z,0.00
2022-10-22T00:22:10.403Z,0.00
2022-10-22T00:23:10.371Z,0.00
2022-10-22T00:24:10.333Z,0.00
2022-10-22T00:25:10.321Z,0.00
2022-10-22T00:26:10.302Z,0.00
2022-10-22T00:27:10.350Z,0.00
2022-10-22T00:28:10.333Z,0.00
2022-10-22T00:29:10.273Z,0.00
2022-10-22T00:30:10.260Z,0.00
2022-10-22T00:31:10.253Z,0.00
2022-10-22T00:32:10.246Z,0.00
2022-10-22T00:33:10.220Z,0.00
2022-10-22T00:34:10.248Z,0.00
2022-10-22T00:35:10.210Z,0.00
2022-10-22T00:36:10.184Z,0.00
2022-10-22T00:37:10.178Z,0.00
2022-10-22T00:38:10.160Z,0.00
2022-10-22T00:39:10.127Z,0.00
2022-10-22T00:40:10.181Z,0.00
2022-10-22T00:41:10.109Z,0.00
2022-10-22T00:42:10.102Z,0.00
2022-10-22T00:43:10.101Z,0.00
2022-10-22T00:44:10.093Z,0.00
2022-10-22T00:45:10.098Z,0.00
2022-10-22T00:46:10.082Z,0.00
2022-10-22T00:47:10.038Z,0.00
2022-10-22T00:48:10.043Z,0.00
2022-10-22T00:49:10.007Z,0.00
2022-10-22T00:50:09.993Z,0.00
2022-10-22T00:51:09.995Z,0.00
2022-10-22T00:52:10.012Z,0.00
2022-10-22T00:53:09.954Z,0.00
2022-10-22T00:54:09.968Z,0.00
2022-10-22T00:55:09.916Z,0.00
2022-10-22T00:56:09.947Z,0.00
2022-10-22T00:57:09.898Z,0.00
2022-10-22T00:58:09.926Z,0.00
2022-10-22T00:59:09.879Z,0.00
2022-10-22T01:00:09.899Z,0.00
2022-10-22T01:01:09.920Z,0.00
2022-10-22T01:02:09.850Z,0.00
2022-10-22T01:03:09.822Z,0.00
2022-10-22T01:04:09.851Z,0.00
2022-10-22T01:05:09.782Z,0.00
2022-10-22T01:06:09.822Z,0.00
2022-10-22T01:07:09.771Z,0.00
2022-10-22T01:09:09.771Z,0.00
2022-10-22T01:10:09.772Z,0.00
2022-10-22T01:11:09.720Z,0.00
2022-10-22T01:12:09.714Z,0.00
2022-10-22T01:13:09.683Z,0.00
2022-10-22T01:14:09.693Z,0.00
2022-10-22T01:15:09.673Z,0.00
2022-10-22T01:16:09.693Z,0.00
2022-10-22T01:17:09.744Z,0.00
2022-10-22T01:18:09.652Z,0.00
2022-10-22T01:19:09.623Z,0.00
2022-10-22T01:20:09.603Z,0.00
2022-10-22T01:21:09.581Z,0.00
2022-10-22T01:22:09.623Z,0.00
2022-10-22T01:23:09.567Z,0.00
2022-10-22T01:24:09.555Z,0.00
2022-10-22T01:25:09.539Z,0.00
2022-10-22T01:26:09.593Z,0.00
2022-10-22T01:27:09.496Z,0.00
2022-10-22T01:28:09.569Z,0.00
2022-10-22T01:29:09.480Z,0.00
2022-10-22T01:30:09.477Z,0.00
2022-10-22T01:31:09.446Z,0.00
2022-10-22T01:32:09.455Z,0.00
2022-10-22T01:33:09.436Z,0.00
2022-10-22T01:34:09.462Z,0.00
2022-10-22T01:35:09.401Z,0.00
2022-10-22T01:36:09.418Z,0.00
2022-10-22T01:37:09.367Z,0.00
2022-10-22T01:38:09.373Z,0.00
2022-10-22T01:39:09.336Z,0.00
2022-10-22T01:40:09.414Z,0.00
2022-10-22T01:41:09.324Z,0.00
2022-10-22T01:42:09.329Z,0.00
2022-10-22T01:43:09.290Z,0.00
2022-10-22T01:44:09.308Z,0.00
2022-10-22T01:45:09.267Z,0.00
2022-10-22T01:46:09.325Z,0.00
2022-10-22T01:47:09.246Z,0.00
2022-10-22T01:48:09.246Z,0.00
2022-10-22T01:49:09.211Z,0.00
2022-10-22T01:50:09.208Z,0.00
2022-10-22T01:51:09.242Z,0.00
2022-10-22T01:52:09.230Z,0.00
2022-10-22T01:53:09.169Z,0.00
2022-10-22T01:54:09.159Z,0.00
2022-10-22T01:55:09.157Z,0.00
2022-10-22T01:56:09.142Z,0.00
2022-10-22T01:57:09.109Z,0.00
2022-10-22T01:58:09.150Z,0.00
2022-10-22T01:59:09.082Z,0.00
2022-10-22T02:00:09.065Z,0.00
2022-10-22T02:01:09.109Z,0.00
2022-10-22T02:02:09.048Z,0.00
2022-10-22T02:03:09.049Z,0.00
2022-10-22T02:04:09.050Z,0.00
2022-10-22T02:05:09.011Z,0.00
2022-10-22T02:06:08.991Z,0.00
2022-10-22T02:07:08.993Z,0.00
2022-10-22T02:08:08.972Z,0.00
2022-10-22T02:09:09.066Z,0.00
2022-10-22T02:10:08.997Z,0.00
2022-10-22T02:11:08.941Z,0.00
2022-10-22T02:12:08.922Z,0.00
2022-10-22T02:13:08.922Z,0.00
2022-10-22T02:14:08.895Z,0.00
2022-10-22T02:15:08.892Z,0.00
2022-10-22T02:16:08.884Z,0.00
2022-10-22T02:17:08.869Z,0.00
2022-10-22T02:18:08.850Z,0.00
2022-10-22T02:19:08.834Z,0.00
2022-10-22T02:20:08.820Z,0.00
2022-10-22T02:22:08.829Z,0.00
2022-10-22T02:23:08.782Z,0.00
2022-10-22T02:24:08.765Z,0.00
2022-10-22T02:25:08.758Z,0.00
2022-10-22T02:26:08.727Z,0.00
2022-10-22T02:27:08.765Z,0.00
2022-10-22T02:28:08.752Z,0.00
2022-10-22T02:29:08.705Z,0.00
2022-10-22T02:30:08.702Z,0.00
2022-10-22T02:31:08.682Z,0.00
2022-10-22T02:32:08.656Z,0.00
2022-10-22T02:33:08.648Z,0.00
2022-10-22T02:34:08.725Z,0.00
2022-10-22T02:35:08.633Z,0.00
2022-10-22T02:36:08.604Z,0.00
2022-10-22T02:37:08.610Z,0.00
2022-10-22T02:38:08.594Z,0.00
2022-10-22T02:39:08.603Z,0.00
2022-10-22T02:40:08.597Z,0.00
2022-10-22T02:41:08.556Z,0.00
2022-10-22T02:42:08.520Z,0.00
2022-10-22T02:43:08.517Z,0.00
2022-10-22T02:44:08.493Z,0.00
2022-10-22T02:45:08.510Z,0.00
2022-10-22T02:46:08.512Z,0.00
2022-10-22T02:47:08.483Z,0.00
2022-10-22T02:48:08.460Z,0.00
2022-10-22T02:49:08.465Z,0.00
2022-10-22T02:50:10.293Z,0.00
2022-10-22T02:51:08.415Z,0.00
2022-10-22T02:52:08.426Z,0.00
2022-10-22T02:53:08.397Z,0.00
2022-10-22T02:54:08.365Z,0.00
2022-10-22T02:55:08.367Z,0.00
2022-10-22T02:56:08.385Z,0.00
2022-10-22T02:57:08.380Z,0.00
2022-10-22T02:58:08.355Z,0.00
2022-10-22T02:59:08.312Z,0.00
2022-10-22T03:00:08.283Z,0.00
2022-10-22T03:01:10.286Z,0.00
2022-10-22T03:02:08.271Z,0.00
2022-10-22T03:03:08.261Z,0.00
2022-10-22T03:04:08.263Z,0.00
2022-10-22T03:05:08.243Z,0.00
2022-10-22T03:06:08.212Z,0.00
2022-10-22T03:07:08.241Z,0.00
2022-10-22T03:08:08.181Z,0.00
2022-10-22T03:09:08.220Z,0.00
2022-10-22T03:10:08.200Z,0.00
2022-10-22T03:11:08.153Z,0.00
2022-10-22T03:12:08.157Z,0.00
2022-10-22T03:13:08.123Z,0.00
2022-10-22T03:14:08.143Z,0.00
2022-10-22T03:15:08.102Z,0.00
2022-10-22T03:16:08.113Z,0.00
2022-10-22T03:17:08.069Z,0.00
2022-10-22T03:18:08.056Z,0.00
2022-10-22T03:19:08.047Z,0.00
2022-10-22T03:20:08.025Z,0.00
2022-10-22T03:21:08.022Z,0.00
2022-10-22T03:22:08.041Z,0.00
2022-10-22T03:23:07.999Z,0.00
2022-10-22T03:24:07.977Z,0.00
2022-10-22T03:25:07.972Z,0.00
2022-10-22T03:26:07.943Z,0.00
2022-10-22T03:27:07.945Z,0.00
2022-10-22T03:28:07.944Z,0.00
2022-10-22T03:29:07.915Z,0.00
2022-10-22T03:30:07.913Z,0.00
2022-10-22T03:31:07.909Z,0.00
2022-10-22T03:32:07.862Z,0.00
2022-10-22T03:33:07.858Z,0.00
2022-10-22T03:34:07.876Z,0.00
2022-10-22T03:35:07.831Z,0.00
2022-10-22T03:36:07.811Z,0.00
2022-10-22T03:37:07.813Z,0.00
2022-10-22T03:38:07.802Z,0.00
2022-10-22T03:39:07.787Z,0.00
2022-10-22T03:40:07.784Z,0.00
2022-10-22T03:41:07.763Z,0.00
2022-10-22T03:42:07.997Z,0.00
2022-10-22T03:43:07.748Z,0.00
2022-10-22T03:44:07.724Z,0.00
2022-10-22T03:45:08.674Z,0.00
2022-10-22T03:46:07.728Z,0.00
2022-10-22T03:47:07.696Z,0.00
2022-10-22T03:48:07.659Z,0.00
2022-10-22T03:49:07.652Z,0.00
2022-10-22T03:50:07.635Z,0.00
2022-10-22T03:51:07.879Z,0.00
2022-10-22T03:52:07.631Z,0.00
2022-10-22T03:53:07.599Z,0.00
2022-10-22T03:54:07.575Z,0.00
2022-10-22T03:55:07.603Z,0.00
2022-10-22T03:56:07.558Z,0.00
2022-10-22T03:57:08.167Z,0.00
2022-10-22T03:58:07.546Z,0.00
2022-10-22T03:59:07.530Z,0.00
2022-10-22T04:00:07.495Z,0.00
2022-10-22T04:01:07.573Z,0.00
2022-10-22T04:02:07.478Z,0.00
2022-10-22T04:03:07.485Z,0.00
2022-10-22T04:04:07.523Z,0.00
2022-10-22T04:05:07.506Z,0.00
2022-10-22T04:06:07.589Z,0.00
2022-10-22T04:07:07.423Z,0.00
2022-10-22T04:08:07.624Z,0.00
2022-10-22T04:09:07.496Z,0.00
2022-10-22T04:10:07.366Z,0.00
2022-10-22T04:11:07.368Z,0.00
2022-10-22T04:12:07.338Z,0.00
2022-10-22T04:13:07.348Z,0.00
2022-10-22T04:14:07.318Z,0.00
2022-10-22T04:15:07.342Z,0.00
2022-10-22T04:16:07.286Z,0.00
2022-10-22T04:17:07.296Z,0.00
2022-10-22T04:18:07.261Z,0.00
2022-10-22T04:19:07.249Z,0.00
2022-10-22T04:20:08.130Z,0.00
2022-10-22T04:21:07.496Z,0.00
2022-10-22T04:22:07.200Z,0.00
2022-10-22T04:23:07.471Z,0.00
2022-10-22T04:24:07.182Z,0.00
2022-10-22T04:25:07.183Z,0.00
2022-10-22T04:26:07.190Z,0.00
2022-10-22T04:27:07.161Z,0.00
2022-10-22T04:28:07.139Z,0.00
2022-10-22T04:29:10.546Z,0.00
2022-10-22T04:30:07.120Z,0.00
2022-10-22T04:31:07.103Z,0.00
2022-10-22T04:32:07.118Z,0.00
2022-10-22T04:33:07.079Z,0.00
2022-10-22T04:34:07.106Z,0.00
2022-10-22T04:35:07.055Z,0.00
2022-10-22T04:36:07.029Z,0.00
2022-10-22T04:37:07.032Z,0.00
2022-10-22T04:38:07.037Z,0.00
2022-10-22T04:39:07.238Z,0.00
2022-10-22T04:40:06.988Z,0.00
2022-10-22T04:41:06.990Z,0.00
2022-10-22T04:42:06.974Z,0.00
2022-10-22T04:43:06.950Z,0.00
2022-10-22T04:44:09.920Z,0.00
2022-10-22T04:45:06.923Z,0.00
2022-10-22T04:46:06.890Z,0.00
2022-10-22T04:47:06.901Z,0.00
2022-10-22T04:48:06.908Z,0.00
2022-10-22T04:49:06.862Z,0.00
2022-10-22T04:50:06.902Z,0.00
2022-10-22T04:51:06.852Z,0.00
2022-10-22T04:52:06.828Z,0.00
2022-10-22T04:53:06.818Z,0.00
2022-10-22T04:54:06.806Z,0.00
2022-10-22T04:55:06.793Z,0.00
2022-10-22T04:56:06.815Z,0.00
2022-10-22T04:57:06.769Z,0.00
2022-10-22T04:58:06.758Z,0.00
2022-10-22T04:59:06.742Z,0.00
2022-10-22T05:00:06.744Z,0.00
2022-10-22T05:01:06.769Z,0.00
2022-10-22T05:02:06.722Z,0.00
2022-10-22T05:03:06.730Z,0.00
2022-10-22T05:04:06.689Z,0.00
2022-10-22T05:05:06.668Z,0.00
2022-10-22T05:06:06.674Z,0.00
2022-10-22T05:07:06.634Z,0.00
2022-10-22T05:08:06.637Z,0.00
2022-10-22T05:09:06.688Z,0.00
2022-10-22T05:10:06.576Z,0.00
2022-10-22T05:11:06.599Z,0.00
2022-10-22T05:12:06.563Z,0.00
2022-10-22T05:13:06.565Z,0.00
2022-10-22T05:14:06.556Z,0.00
2022-10-22T05:15:06.556Z,0.00
2022-10-22T05:16:06.511Z,0.00
2022-10-22T05:17:06.514Z,0.00
2022-10-22T05:18:06.497Z,0.00
2022-10-22T05:19:06.473Z,0.00
2022-10-22T05:20:06.503Z,0.00
2022-10-22T05:21:06.459Z,0.00
2022-10-22T05:22:06.426Z,0.00
2022-10-22T05:23:06.433Z,0.00
2022-10-22T05:24:06.415Z,0.00
2022-10-22T05:25:06.405Z,0.00
2022-10-22T05:26:06.421Z,0.00
2022-10-22T05:27:06.437Z,0.00
2022-10-22T05:28:06.364Z,0.00
2022-10-22T05:29:06.351Z,0.00
2022-10-22T05:30:06.313Z,0.00
2022-10-22T05:31:06.329Z,0.00
2022-10-22T05:32:06.373Z,0.00
2022-10-22T05:33:06.323Z,0.00
2022-10-22T05:34:06.279Z,0.00
2022-10-22T05:35:06.268Z,0.00
2022-10-22T05:36:06.228Z,0.00
2022-10-22T05:37:06.189Z,0.00
2022-10-22T05:38:06.239Z,0.00
2022-10-22T05:39:06.157Z,0.00
2022-10-22T05:40:19.352Z,0.00
2022-10-22T05:41:06.149Z,0.00
2022-10-22T05:42:06.110Z,0.00
2022-10-22T05:43:06.133Z,0.00
2022-10-22T05:44:06.367Z,0.00
2022-10-22T05:45:06.100Z,0.00
2022-10-22T05:46:06.062Z,0.00
2022-10-22T05:47:06.067Z,0.00
2022-10-22T05:48:06.063Z,0.00
2022-10-22T05:49:06.056Z,0.00
2022-10-22T05:50:06.035Z,0.00
2022-10-22T05:51:06.007Z,0.00
2022-10-22T05:52:06.025Z,0.00
2022-10-22T05:53:05.981Z,0.00
2022-10-22T05:54:05.960Z,0.00
2022-10-22T05:55:05.994Z,0.00
2022-10-22T05:56:05.976Z,0.00
2022-10-22T05:57:05.938Z,0.00
2022-10-22T05:58:05.892Z,0.00
2022-10-22T05:59:05.912Z,0.01
2022-10-22T06:00:05.887Z,0.01
2022-10-22T06:01:05.913Z,0.01
2022-10-22T06:02:05.936Z,0.01
2022-10-22T06:03:05.851Z,0.01
2022-10-22T06:04:05.854Z,0.01
2022-10-22T06:05:05.828Z,0.01
2022-10-22T06:06:05.802Z,0.03
2022-10-22T06:07:05.807Z,0.03
2022-10-22T06:08:05.838Z,0.03
2022-10-22T06:09:05.822Z,0.03
2022-10-22T06:10:05.753Z,0.03
2022-10-22T06:11:05.748Z,0.04
2022-10-22T06:12:05.731Z,0.04
2022-10-22T06:13:05.741Z,0.04
2022-10-22T06:14:05.741Z,0.04
2022-10-22T06:15:05.690Z,0.04
2022-10-22T06:16:05.706Z,0.05
2022-10-22T06:17:05.670Z,0.05
2022-10-22T06:18:05.704Z,0.05
2022-10-22T06:19:05.648Z,0.05
2022-10-22T06:21:05.613Z,0.06
2022-10-22T06:22:05.624Z,0.06
2022-10-22T06:23:05.579Z,0.06
2022-10-22T06:24:05.634Z,0.08
2022-10-22T06:25:05.549Z,0.08
2022-10-22T06:26:05.603Z,0.08
2022-10-22T06:27:05.543Z,0.08
2022-10-22T06:28:05.528Z,0.09
2022-10-22T06:29:05.506Z,0.09
2022-10-22T06:30:05.494Z,0.09
2022-10-22T06:31:05.474Z,0.09
2022-10-22T06:32:05.522Z,0.10
2022-10-22T06:33:05.438Z,0.10
2022-10-22T06:34:05.511Z,0.10
2022-10-22T06:35:05.419Z,0.11
2022-10-22T06:36:07.582Z,0.11
2022-10-22T06:37:05.393Z,0.11
2022-10-22T06:38:05.436Z,0.13
2022-10-22T06:39:05.365Z,0.13
2022-10-22T06:40:05.375Z,0.13
2022-10-22T06:41:05.347Z,0.13
2022-10-22T06:42:05.346Z,0.14
2022-10-22T06:43:05.335Z,0.14
2022-10-22T06:44:05.375Z,0.14
2022-10-22T06:45:05.331Z,0.15
2022-10-22T06:46:05.298Z,0.15
2022-10-22T06:47:05.256Z,0.15
2022-10-22T06:48:05.277Z,0.15
2022-10-22T06:49:05.236Z,0.16
2022-10-22T06:50:05.289Z,0.16
2022-10-22T06:51:05.445Z,0.18
2022-10-22T06:52:05.237Z,0.18
2022-10-22T06:53:05.178Z,0.18
2022-10-22T06:54:05.223Z,0.19
2022-10-22T06:55:06.121Z,0.19
2022-10-22T06:56:05.200Z,0.20
2022-10-22T06:57:05.157Z,0.20
2022-10-22T06:58:05.646Z,0.20
2022-10-22T06:59:05.121Z,0.22
2022-10-22T07:00:05.130Z,0.22
2022-10-22T07:01:05.196Z,0.23
2022-10-22T07:02:05.118Z,0.24
2022-10-22T07:03:05.087Z,0.24
2022-10-22T07:04:05.045Z,0.25
2022-10-22T07:05:05.038Z,0.25
2022-10-22T07:06:05.023Z,0.25
2022-10-22T07:07:05.068Z,0.25
2022-10-22T07:08:05.011Z,0.25
2022-10-22T07:09:05.064Z,0.27
2022-10-22T07:10:04.981Z,0.27
2022-10-22T07:11:04.946Z,0.27
2022-10-22T07:12:04.962Z,0.27
2022-10-22T07:13:04.947Z,0.28
2022-10-22T07:14:04.945Z,0.28
2022-10-22T07:15:04.907Z,0.28
2022-10-22T07:16:04.920Z,0.28
2022-10-22T07:17:04.884Z,0.29
2022-10-22T07:18:04.906Z,0.29
2022-10-22T07:19:04.843Z,0.29
2022-10-22T07:20:04.843Z,0.29
2022-10-22T07:21:04.829Z,0.30
2022-10-22T07:22:04.863Z,0.30
2022-10-22T07:23:04.790Z,0.30
2022-10-22T07:24:04.830Z,0.30
2022-10-22T07:25:07.234Z,0.32
2022-10-22T07:26:04.780Z,0.32
2022-10-22T07:27:07.040Z,0.32
2022-10-22T07:28:04.763Z,0.32
2022-10-22T07:29:04.749Z,0.32
2022-10-22T07:30:04.722Z,0.33
2022-10-22T07:31:04.704Z,0.33
2022-10-22T07:32:04.691Z,0.33
2022-10-22T07:33:04.658Z,0.33
2022-10-22T07:34:04.681Z,0.33
2022-10-22T07:35:04.665Z,0.34
2022-10-22T07:36:04.641Z,0.34
2022-10-22T07:37:04.634Z,0.34
2022-10-22T07:38:04.647Z,0.34
2022-10-22T07:39:04.601Z,0.34
2022-10-22T07:40:04.605Z,0.35
2022-10-22T07:41:04.568Z,0.35
2022-10-22T07:42:04.572Z,0.37
2022-10-22T07:43:04.528Z,0.35
2022-10-22T07:44:04.530Z,0.37
2022-10-22T07:45:04.508Z,0.38
2022-10-22T07:46:04.532Z,0.39
2022-10-22T07:47:04.516Z,0.41
2022-10-22T07:48:04.498Z,0.43
2022-10-22T07:49:04.451Z,0.43
2022-10-22T07:50:04.474Z,0.46
2022-10-22T07:51:04.543Z,0.48
2022-10-22T07:52:04.428Z,0.48
2022-10-22T07:53:04.408Z,0.49
2022-10-22T07:54:04.404Z,0.49
2022-10-22T07:55:10.899Z,0.49
2022-10-22T07:56:04.367Z,0.47
2022-10-22T07:57:04.430Z,0.47
2022-10-22T07:58:04.383Z,0.44
2022-10-22T07:59:04.364Z,0.43
2022-10-22T08:00:04.342Z,0.43
2022-10-22T08:01:04.319Z,0.43
2022-10-22T08:02:04.299Z,0.43
2022-10-22T08:03:04.309Z,0.42
2022-10-22T08:04:04.271Z,0.41
2022-10-22T08:05:04.245Z,0.41
2022-10-22T08:06:04.245Z,0.39
2022-10-22T08:07:04.206Z,0.39
2022-10-22T08:08:04.222Z,0.39
2022-10-22T08:09:04.204Z,0.39
2022-10-22T08:10:04.200Z,0.38
2022-10-22T08:11:04.172Z,0.38
2022-10-22T08:12:04.193Z,0.37
2022-10-22T08:13:04.152Z,0.37
2022-10-22T08:14:04.190Z,0.35
2022-10-22T08:15:04.115Z,0.35
2022-10-22T08:16:04.107Z,0.34
2022-10-22T08:17:04.083Z,0.34
2022-10-22T08:18:04.099Z,0.33
2022-10-22T08:19:04.113Z,0.34
2022-10-22T08:20:04.109Z,0.34
2022-10-22T08:21:04.056Z,0.37
2022-10-22T08:22:04.066Z,0.39
2022-10-22T08:23:04.005Z,0.41
2022-10-22T08:24:04.061Z,0.42
2022-10-22T08:25:03.999Z,0.43
2022-10-22T08:26:04.035Z,0.43
2022-10-22T08:27:03.963Z,0.41
2022-10-22T08:28:03.959Z,0.38
2022-10-22T08:29:03.925Z,0.38
2022-10-22T08:30:03.925Z,0.38
2022-10-22T08:31:03.918Z,0.41
2022-10-22T08:32:03.924Z,0.42
2022-10-22T08:33:03.894Z,0.42
2022-10-22T08:34:03.937Z,0.41
2022-10-22T08:35:03.867Z,0.39
2022-10-22T08:36:03.861Z,0.38
2022-10-22T08:37:03.862Z,0.37
2022-10-22T08:38:03.833Z,0.37
2022-10-22T08:39:03.809Z,0.35
2022-10-22T08:40:03.795Z,0.35
2022-10-22T08:41:03.778Z,0.37
2022-10-22T08:42:03.767Z,0.39
2022-10-22T08:43:03.810Z,0.41
2022-10-22T08:44:03.750Z,0.43
2022-10-22T08:45:03.738Z,0.46
2022-10-22T08:46:03.711Z,0.48
2022-10-22T08:47:03.731Z,0.51
2022-10-22T08:48:03.723Z,0.52
2022-10-22T08:49:03.718Z,0.52
2022-10-22T08:50:03.707Z,0.51
2022-10-22T08:51:03.642Z,0.46
2022-10-22T08:52:03.639Z,0.41
2022-10-22T08:53:03.631Z,0.38
2022-10-22T08:54:03.635Z,0.38
2022-10-22T08:55:03.596Z,0.41
2022-10-22T08:56:03.608Z,0.42
2022-10-22T08:57:03.567Z,0.42
2022-10-22T08:58:03.591Z,0.41
2022-10-22T08:59:03.582Z,0.38
2022-10-22T09:00:03.537Z,0.38
2022-10-22T09:01:03.521Z,0.37
2022-10-22T09:02:03.507Z,0.37
2022-10-22T09:03:03.479Z,0.37
2022-10-22T09:04:03.499Z,0.38
2022-10-22T09:05:03.481Z,0.41
2022-10-22T09:06:03.495Z,0.44
2022-10-22T09:07:03.441Z,0.49
2022-10-22T09:08:03.445Z,0.53
2022-10-22T09:09:03.462Z,0.54
2022-10-22T09:10:03.446Z,0.54
2022-10-22T09:11:03.376Z,0.56
2022-10-22T09:12:03.380Z,0.53
2022-10-22T09:13:03.351Z,0.54
2022-10-22T09:14:03.430Z,0.56
2022-10-22T09:15:03.320Z,0.57
2022-10-22T09:16:03.352Z,0.57
2022-10-22T09:17:03.322Z,0.59
2022-10-22T09:18:03.292Z,0.62
2022-10-22T09:19:03.283Z,0.65
2022-10-22T09:20:03.268Z,0.66
2022-10-22T09:21:03.297Z,0.65
2022-10-22T09:22:03.249Z,0.65
2022-10-22T09:23:03.230Z,0.65
2022-10-22T09:24:03.240Z,0.66
2022-10-22T09:25:03.195Z,0.67
2022-10-22T09:26:03.255Z,0.67
2022-10-22T09:27:03.243Z,0.67
2022-10-22T09:28:03.164Z,0.66
2022-10-22T09:29:03.167Z,0.65
2022-10-22T09:30:03.145Z,0.65
2022-10-22T09:31:03.131Z,0.66
2022-10-22T09:32:03.138Z,0.66
2022-10-22T09:33:03.101Z,0.66
2022-10-22T09:34:03.140Z,0.63
2022-10-22T09:35:03.070Z,0.61
2022-10-22T09:36:03.068Z,0.59
2022-10-22T09:37:03.128Z,0.61
2022-10-22T09:38:03.074Z,0.62
2022-10-22T09:39:03.071Z,0.66
2022-10-22T09:40:03.036Z,0.67
2022-10-22T09:41:03.051Z,0.67
2022-10-22T09:42:02.987Z,0.67
2022-10-22T09:43:03.060Z,0.68
2022-10-22T09:44:02.951Z,0.68
2022-10-22T09:45:02.954Z,0.68
2022-10-22T09:46:02.927Z,0.68
2022-10-22T09:47:02.914Z,0.70
2022-10-22T09:48:02.992Z,0.71
2022-10-22T09:49:02.923Z,0.71
2022-10-22T09:50:02.894Z,0.68
2022-10-22T09:51:02.870Z,0.67
2022-10-22T09:52:02.878Z,0.62
2022-10-22T09:53:02.826Z,0.62
2022-10-22T09:54:02.887Z,0.63
2022-10-22T09:55:02.808Z,0.66
2022-10-22T09:56:02.802Z,0.70
2022-10-22T09:57:02.773Z,0.72
2022-10-22T09:58:02.824Z,0.73
2022-10-22T09:59:03.656Z,0.73
2022-10-22T10:00:02.795Z,0.73
2022-10-22T10:01:02.852Z,0.76
2022-10-22T10:02:13.604Z,0.78
2022-10-22T10:03:02.768Z,0.82
2022-10-22T10:04:05.600Z,0.82
2022-10-22T10:05:02.724Z,0.81
2022-10-22T10:06:05.076Z,0.82
2022-10-22T10:07:02.888Z,0.82
2022-10-22T10:08:02.665Z,0.82
2022-10-22T10:09:02.650Z,0.81
2022-10-22T10:10:02.880Z,0.80
2022-10-22T10:11:02.884Z,0.78
2022-10-22T10:12:02.859Z,0.78
2022-10-22T10:13:02.570Z,0.78
2022-10-22T10:14:02.566Z,0.78
2022-10-22T10:15:02.535Z,0.80
2022-10-22T10:16:02.584Z,0.82
2022-10-22T10:17:02.517Z,0.84
2022-10-22T10:18:02.517Z,0.84
2022-10-22T10:19:02.491Z,0.85
2022-10-22T10:20:03.994Z,0.85
2022-10-22T10:21:02.798Z,0.84
2022-10-22T10:22:02.513Z,0.84
2022-10-22T10:23:02.434Z,0.84
2022-10-22T10:24:02.478Z,0.84
2022-10-22T10:25:02.402Z,0.85
2022-10-22T10:26:02.448Z,0.85
2022-10-22T10:27:02.431Z,0.85
2022-10-22T10:28:02.394Z,0.86
2022-10-22T10:29:02.392Z,0.86
2022-10-22T10:30:02.380Z,0.86
2022-10-22T10:31:02.501Z,0.87
2022-10-22T10:32:02.327Z,0.90
2022-10-22T10:33:02.379Z,0.91
2022-10-22T10:34:02.288Z,0.91
2022-10-22T10:35:02.294Z,0.91
2022-10-22T10:36:02.264Z,0.92
2022-10-22T10:37:02.264Z,0.92
2022-10-22T10:38:02.266Z,0.90
2022-10-22T10:39:02.264Z,0.89
2022-10-22T10:40:02.221Z,0.86
2022-10-22T10:41:02.239Z,0.86
2022-10-22T10:42:02.203Z,0.85
2022-10-22T10:43:02.203Z,0.85
2022-10-22T10:44:02.226Z,0.84
2022-10-22T10:45:02.190Z,0.84
2022-10-22T10:46:02.153Z,0.84
2022-10-22T10:47:02.148Z,0.81
2022-10-22T10:48:02.142Z,0.81
2022-10-22T10:49:02.151Z,0.80
2022-10-22T10:50:02.094Z,0.78
2022-10-22T10:51:02.105Z,0.77
2022-10-22T10:52:02.080Z,0.75
2022-10-22T10:53:02.080Z,0.73
2022-10-22T10:54:02.030Z,0.70
2022-10-22T10:55:02.100Z,0.68
2022-10-22T10:56:02.015Z,0.68
2022-10-22T10:57:02.035Z,0.68
2022-10-22T10:58:01.992Z,0.68
2022-10-22T10:59:01.979Z,0.62
2022-10-22T11:00:02.002Z,0.59
2022-10-22T11:01:01.977Z,0.58
2022-10-22T11:02:01.939Z,0.57
2022-10-22T11:03:01.930Z,0.57
2022-10-22T11:04:01.903Z,0.57
2022-10-22T11:05:01.921Z,0.58
2022-10-22T11:06:01.914Z,0.56
2022-10-22T11:07:10.935Z,0.56
2022-10-22T11:08:01.869Z,0.57
2022-10-22T11:09:01.914Z,0.63
2022-10-22T11:10:01.845Z,0.58
2022-10-22T11:11:01.862Z,0.58
2022-10-22T11:12:01.831Z,0.65
2022-10-22T11:13:01.803Z,0.71
2022-10-22T11:14:01.802Z,0.72
2022-10-22T11:15:01.790Z,0.76
2022-10-22T11:16:01.758Z,0.71
2022-10-22T11:17:01.752Z,0.71
2022-10-22T11:18:02.005Z,0.84
2022-10-22T11:19:01.738Z,0.82
2022-10-22T11:20:01.695Z,0.77
2022-10-22T11:21:01.700Z,0.86
2022-10-22T11:22:01.679Z,0.81
2022-10-22T11:23:18.633Z,0.81
2022-10-22T11:24:01.690Z,0.81
2022-10-22T11:25:01.687Z,0.85
2022-10-22T11:26:01.668Z,0.76
2022-10-22T11:27:01.639Z,0.96
2022-10-22T11:28:07.759Z,0.84
2022-10-22T11:29:01.606Z,0.84
2022-10-22T11:30:01.608Z,0.86
2022-10-22T11:31:01.574Z,0.85
2022-10-22T11:32:01.563Z,0.87
2022-10-22T11:33:01.546Z,0.87
2022-10-22T11:34:10.061Z,0.86
2022-10-22T11:35:01.553Z,0.84
2022-10-22T11:36:01.519Z,0.81
2022-10-22T11:37:01.510Z,0.80
2022-10-22T11:38:01.483Z,0.80
2022-10-22T11:39:01.503Z,0.80
2022-10-22T11:40:01.447Z,0.80
2022-10-22T11:41:01.437Z,0.80
2022-10-22T11:42:01.462Z,0.80
2022-10-22T11:43:01.403Z,0.80
2022-10-22T11:44:01.410Z,0.80
2022-10-22T11:45:01.419Z,0.81
2022-10-22T11:46:01.427Z,0.81
2022-10-22T11:47:01.364Z,0.82
2022-10-22T11:48:01.407Z,0.82
2022-10-22T11:49:01.340Z,0.81
2022-10-22T11:50:01.342Z,0.81
2022-10-22T11:51:01.337Z,0.80
2022-10-22T11:52:04.309Z,0.80
2022-10-22T11:53:01.448Z,0.81
2022-10-22T11:54:01.671Z,0.81
2022-10-22T11:55:01.264Z,0.81
2022-10-22T11:56:01.253Z,0.81
2022-10-22T11:57:01.236Z,0.80
2022-10-22T11:58:01.193Z,0.80
2022-10-22T11:59:01.294Z,0.78
2022-10-22T12:00:01.187Z,0.78
2022-10-22T12:01:01.216Z,0.78
2022-10-22T12:02:01.157Z,0.78
2022-10-22T12:03:01.181Z,0.78
2022-10-22T12:04:01.184Z,0.78
2022-10-22T12:05:01.183Z,0.78
2022-10-22T12:06:01.134Z,0.78
2022-10-22T12:07:01.104Z,0.77
2022-10-22T12:08:01.072Z,0.77
2022-10-22T12:09:01.135Z,0.75
2022-10-22T12:10:01.076Z,0.75
2022-10-22T12:11:01.078Z,0.73
2022-10-22T12:12:01.028Z,0.73
2022-10-22T12:13:01.113Z,0.73
2022-10-22T12:14:01.000Z,0.73
2022-10-22T12:15:00.994Z,0.73
2022-10-22T12:16:00.965Z,0.72
2022-10-22T12:17:01.023Z,0.70
2022-10-22T12:18:01.021Z,0.67
2022-10-22T12:19:00.942Z,0.63
2022-10-22T12:20:02.323Z,0.63
2022-10-22T12:21:01.041Z,0.65
2022-10-22T12:22:00.918Z,0.68
2022-10-22T12:23:00.929Z,0.76
2022-10-22T12:24:00.877Z,0.85
2022-10-22T12:25:00.870Z,0.91
2022-10-22T12:26:00.858Z,0.92
2022-10-22T12:27:00.878Z,0.90
2022-10-22T12:28:00.826Z,0.90
2022-10-22T12:29:00.879Z,0.96
2022-10-22T12:30:00.800Z,0.84
2022-10-22T12:31:00.804Z,0.84
2022-10-22T12:32:00.778Z,0.76
2022-10-22T12:33:00.782Z,0.70
2022-10-22T12:34:00.738Z,0.63
2022-10-22T12:35:00.799Z,0.71
2022-10-22T12:36:00.732Z,0.61
2022-10-22T12:37:00.720Z,0.61
2022-10-22T12:38:00.712Z,0.56
2022-10-22T12:39:00.697Z,0.63
2022-10-22T12:40:00.664Z,0.59
2022-10-22T12:41:01.460Z,0.59
2022-10-22T12:42:00.633Z,0.59
2022-10-22T12:43:00.685Z,0.54
2022-10-22T12:44:00.921Z,0.53
2022-10-22T12:45:00.889Z,0.57
2022-10-22T12:46:00.581Z,0.58
2022-10-22T12:47:00.637Z,0.71
2022-10-22T12:48:00.565Z,0.75
2022-10-22T12:49:00.555Z,0.73
2022-10-22T12:50:00.596Z,0.61
2022-10-22T12:51:00.527Z,0.75
2022-10-22T12:52:00.516Z,0.68
2022-10-22T12:53:00.775Z,0.63
2022-10-22T12:54:00.729Z,0.75
2022-10-22T12:55:00.480Z,0.72
2022-10-22T12:56:00.462Z,0.85
2022-10-22T12:57:00.502Z,0.81
2022-10-22T12:58:00.418Z,0.85
2022-10-22T12:59:00.461Z,0.82
2022-10-22T13:01:00.461Z,0.77
2022-10-22T13:02:00.371Z,0.75
2022-10-22T13:03:00.420Z,0.72
2022-10-22T13:04:00.369Z,0.71
2022-10-22T13:05:00.399Z,0.71
2022-10-22T13:06:00.573Z,0.70
2022-10-22T13:07:00.332Z,0.70
2022-10-22T13:08:00.524Z,0.71
2022-10-22T13:09:01.104Z,0.73
2022-10-22T13:10:00.283Z,0.77
2022-10-22T13:11:01.192Z,0.84
2022-10-22T13:12:00.248Z,0.75
2022-10-22T13:13:00.297Z,0.85
2022-10-22T13:14:00.215Z,0.77
2022-10-22T13:15:00.261Z,0.75
2022-10-22T13:16:00.210Z,0.73
2022-10-22T13:17:00.236Z,0.75
2022-10-22T13:18:00.171Z,0.71
2022-10-22T13:19:00.206Z,0.68
2022-10-22T13:20:00.142Z,0.67
2022-10-22T13:21:00.152Z,0.65
2022-10-22T13:22:00.119Z,0.62